Time;durP1;ratioP1;P1;durP2;ratioP2;P2;SDS_P1;SDS_P2;PMS_P1;PMS_P2;Temp;Humidity;BMP_temperature;BMP_pressure;BME280_temperature;BME280_humidity;BME280_pressure;Samples;Min_cycle;Max_cycle;Signal;HPM_P1;HPM_P2
2021/12/29 00:00:12;;;;;;;168.95;51.65;;;;;;;;;;5113398;28;20026;-65
2021/12/29 00:02:38;;;;;;;176.30;52.35;;;;;;;;;;5115247;28;20081;-65
2021/12/29 00:05:05;;;;;;;156.02;48.88;;;;;;;;;;5113909;28;20028;-65
2021/12/29 00:07:31;;;;;;;152.93;49.88;;;;;;;;;;5113679;28;20134;-65
2021/12/29 00:10:00;;;;;;;194.70;67.65;;;;;;;;;;5115339;28;20031;-65
2021/12/29 00:12:27;;;;;;;166.82;55.10;;;;;;;;;;5115683;28;20126;-65
2021/12/29 00:14:53;;;;;;;148.20;56.35;;;;;;;;;;5115297;28;20034;-65
2021/12/29 00:17:20;;;;;;;159.75;55.38;;;;;;;;;;5115036;28;20481;-65
2021/12/29 00:19:47;;;;;;;151.48;49.95;;;;;;;;;;5115252;28;20114;-65
2021/12/29 00:22:13;;;;;;;126.78;44.40;;;;;;;;;;5114940;28;20038;-65
2021/12/29 00:24:39;;;;;;;135.43;45.00;;;;;;;;;;5114907;28;20055;-65
2021/12/29 00:27:07;;;;;;;138.65;45.58;;;;;;;;;;5114979;28;20468;-65
2021/12/29 00:29:34;;;;;;;128.63;43.85;;;;;;;;;;5115041;28;20020;-67
2021/12/29 00:32:00;;;;;;;148.98;48.75;;;;;;;;;;5096929;28;20038;-67
2021/12/29 00:34:26;;;;;;;125.30;42.20;;;;;;;;;;5114959;28;20019;-67
2021/12/29 00:36:52;;;;;;;400.17;169.60;;;;;;;;;;5114947;28;20134;-66
2021/12/29 00:39:19;;;;;;;276.73;118.97;;;;;;;;;;5114850;28;20019;-67
2021/12/29 00:41:45;;;;;;;313.80;139.00;;;;;;;;;;5114857;28;20031;-67
2021/12/29 00:44:11;;;;;;;126.30;45.70;;;;;;;;;;5113427;28;20129;-67
2021/12/29 00:46:38;;;;;;;137.27;49.88;;;;;;;;;;5113381;28;20126;-67
2021/12/29 00:49:05;;;;;;;138.20;45.92;;;;;;;;;;5113335;28;20417;-67
2021/12/29 00:51:32;;;;;;;143.65;46.83;;;;;;;;;;5114706;28;20024;-67
2021/12/29 00:53:59;;;;;;;145.88;48.72;;;;;;;;;;5113292;28;20537;-67
2021/12/29 00:56:26;;;;;;;141.80;48.00;;;;;;;;;;5114549;28;20039;-67
2021/12/29 00:58:52;;;;;;;123.32;43.00;;;;;;;;;;5114454;28;20055;-67
2021/12/29 01:01:18;;;;;;;119.22;42.75;;;;;;;;;;5113936;28;20480;-67
2021/12/29 01:03:44;;;;;;;121.25;44.60;;;;;;;;;;5114309;28;20027;-67
2021/12/29 01:06:11;;;;;;;132.75;45.72;;;;;;;;;;5114014;28;20106;-66
2021/12/29 01:08:38;;;;;;;186.90;71.57;;;;;;;;;;5112995;28;20027;-66
2021/12/29 01:11:04;;;;;;;160.32;54.88;;;;;;;;;;5114311;28;20022;-66
2021/12/29 01:13:33;;;;;;;236.40;84.40;;;;;;;;;;5112931;28;20023;-66
2021/12/29 01:18:32;;;;;;;219.80;88.90;;;;;;;;;;5114160;28;20062;-65
2021/12/29 01:20:59;;;;;;;381.92;176.32;;;;;;;;;;5114194;28;20149;-65
2021/12/29 01:23:25;;;;;;;268.85;122.00;;;;;;;;;;5114048;28;20471;-66
2021/12/29 01:25:51;;;;;;;167.52;72.30;;;;;;;;;;5114011;28;20527;-66
2021/12/29 01:28:18;;;;;;;161.68;67.97;;;;;;;;;;5113936;28;20128;-65
2021/12/29 01:30:45;;;;;;;217.82;94.63;;;;;;;;;;5112667;28;20123;-66
2021/12/29 01:33:11;;;;;;;175.18;70.00;;;;;;;;;;5113911;28;20051;-67
2021/12/29 01:35:38;;;;;;;187.43;84.28;;;;;;;;;;5113538;28;20421;-67
2021/12/29 01:38:05;;;;;;;173.70;75.40;;;;;;;;;;5113826;28;20110;-66
2021/12/29 01:40:32;;;;;;;128.82;51.97;;;;;;;;;;5114027;28;20062;-66
2021/12/29 01:42:59;;;;;;;130.63;58.70;;;;;;;;;;5113456;28;20099;-66
2021/12/29 01:45:25;;;;;;;119.97;47.55;;;;;;;;;;5112407;28;20126;-67
2021/12/29 01:47:51;;;;;;;121.55;48.22;;;;;;;;;;5113690;28;20055;-67
2021/12/29 01:50:18;;;;;;;125.75;48.83;;;;;;;;;;5113612;28;20047;-67
2021/12/29 01:52:53;;;;;;;122.82;47.13;;;;;;;;;;5113422;28;20071;-67
2021/12/29 01:55:19;;;;;;;127.45;46.80;;;;;;;;;;5113642;28;20019;-67
2021/12/29 01:57:45;;;;;;;113.63;45.08;;;;;;;;;;5112253;28;20074;-66
2021/12/29 02:00:17;;;;;;;130.63;46.55;;;;;;;;;;5113522;28;20553;-67
2021/12/29 02:02:43;;;;;;;130.07;46.83;;;;;;;;;;5113594;28;20098;-67
2021/12/29 02:05:12;;;;;;;135.13;49.20;;;;;;;;;;5112146;28;20483;-67
2021/12/29 02:07:39;;;;;;;124.00;47.50;;;;;;;;;;5112939;28;20114;-67
2021/12/29 02:10:07;;;;;;;151.05;51.65;;;;;;;;;;5112105;28;20020;-67
2021/12/29 02:12:33;;;;;;;145.48;51.35;;;;;;;;;;5113723;28;20070;-67
2021/12/29 02:14:59;;;;;;;139.60;53.92;;;;;;;;;;5116093;28;20110;-67
2021/12/29 02:17:26;;;;;;;140.38;55.15;;;;;;;;;;5117889;28;20077;-67
2021/12/29 02:19:52;;;;;;;134.40;51.13;;;;;;;;;;5117622;28;20572;-67
2021/12/29 02:22:34;;;;;;;115.00;45.78;;;;;;;;;;5116297;28;20023;-67
2021/12/29 02:25:46;;;;;;;119.07;47.00;;;;;;;;;;5116345;28;20020;-68
2021/12/29 02:27:54;;;;;;;117.82;46.60;;;;;;;;;;5114813;28;20078;-66
2021/12/29 02:30:24;;;;;;;106.18;42.75;;;;;;;;;;5117717;28;20047;-67
2021/12/29 02:32:55;;;;;;;110.97;43.58;;;;;;;;;;5116127;28;20103;-66
2021/12/29 02:35:22;;;;;;;107.95;42.88;;;;;;;;;;5117275;28;20030;-66
2021/12/29 02:37:48;;;;;;;102.97;41.85;;;;;;;;;;5116969;28;20074;-66
2021/12/29 02:40:15;;;;;;;104.68;42.10;;;;;;;;;;5116908;28;20020;-66
2021/12/29 02:42:42;;;;;;;115.68;45.70;;;;;;;;;;5115914;28;20437;-66
2021/12/29 02:45:11;;;;;;;119.75;45.53;;;;;;;;;;5116812;28;20380;-68
2021/12/29 02:47:37;;;;;;;103.00;44.40;;;;;;;;;;5117024;28;20039;-68
2021/12/29 02:50:04;;;;;;;101.95;43.22;;;;;;;;;;5117014;28;20034;-68
2021/12/29 02:52:30;;;;;;;107.32;43.55;;;;;;;;;;5117344;28;20110;-68
2021/12/29 02:54:56;;;;;;;103.03;44.30;;;;;;;;;;5116918;28;20032;-66
2021/12/29 02:57:22;;;;;;;104.75;41.47;;;;;;;;;;5116865;28;20111;-65
2021/12/29 02:59:49;;;;;;;112.40;45.97;;;;;;;;;;5115587;28;20031;-66
2021/12/29 03:02:15;;;;;;;115.10;49.38;;;;;;;;;;5117101;28;20106;-67
2021/12/29 03:04:42;;;;;;;105.28;43.72;;;;;;;;;;5115102;28;20028;-66
2021/12/29 03:07:08;;;;;;;95.82;40.70;;;;;;;;;;5116208;28;20127;-65
2021/12/29 03:09:34;;;;;;;92.15;40.42;;;;;;;;;;5116367;27;20023;-65
2021/12/29 03:12:00;;;;;;;101.97;43.63;;;;;;;;;;5115431;28;20118;-64
2021/12/29 03:14:27;;;;;;;100.50;43.67;;;;;;;;;;5116548;28;20020;-66
2021/12/29 03:16:53;;;;;;;108.70;43.33;;;;;;;;;;5116480;28;20076;-66
2021/12/29 03:19:19;;;;;;;102.47;41.38;;;;;;;;;;5116476;28;20027;-66
2021/12/29 03:21:46;;;;;;;117.15;44.13;;;;;;;;;;5116461;28;20114;-66
2021/12/29 03:24:14;;;;;;;105.63;42.88;;;;;;;;;;5115934;28;20044;-66
2021/12/29 03:26:40;;;;;;;102.45;42.08;;;;;;;;;;5114683;28;20020;-66
2021/12/29 03:29:07;;;;;;;118.78;45.65;;;;;;;;;;5116278;28;20035;-66
2021/12/29 03:31:37;;;;;;;107.25;43.13;;;;;;;;;;5115962;28;20497;-65
2021/12/29 03:34:03;;;;;;;139.68;48.65;;;;;;;;;;5116149;28;20019;-65
2021/12/29 03:36:29;;;;;;;136.63;46.20;;;;;;;;;;5116081;28;20106;-65
2021/12/29 03:38:56;;;;;;;137.75;47.25;;;;;;;;;;5116368;28;20093;-65
2021/12/29 03:41:24;;;;;;;119.82;42.90;;;;;;;;;;5116021;28;20031;-65
2021/12/29 03:43:50;;;;;;;114.60;41.45;;;;;;;;;;5116057;28;20027;-65
2021/12/29 03:46:17;;;;;;;117.70;45.97;;;;;;;;;;5114674;28;20139;-65
2021/12/29 03:48:44;;;;;;;121.57;44.75;;;;;;;;;;5114532;28;20480;-65
2021/12/29 03:51:11;;;;;;;124.63;46.95;;;;;;;;;;5115913;28;20020;-66
2021/12/29 03:53:38;;;;;;;124.03;45.42;;;;;;;;;;5115869;27;20032;-65
2021/12/29 03:56:05;;;;;;;124.07;42.17;;;;;;;;;;5115459;28;20460;-65
2021/12/29 03:58:31;;;;;;;137.45;46.83;;;;;;;;;;5115706;28;20027;-65
2021/12/29 04:01:00;;;;;;;148.80;46.70;;;;;;;;;;5115694;28;20469;-65
2021/12/29 04:03:27;;;;;;;148.88;46.80;;;;;;;;;;5115664;28;20099;-65
2021/12/29 04:05:53;;;;;;;137.82;44.85;;;;;;;;;;5113717;28;20048;-65
2021/12/29 04:08:19;;;;;;;127.00;42.78;;;;;;;;;;5115160;28;20488;-65
2021/12/29 04:10:45;;;;;;;120.13;42.60;;;;;;;;;;5113892;28;20027;-65
2021/12/29 04:13:12;;;;;;;119.20;44.03;;;;;;;;;;5115191;28;20383;-65
2021/12/29 04:15:38;;;;;;;128.75;44.30;;;;;;;;;;5115658;28;20055;-65
2021/12/29 04:18:14;;;;;;;117.60;42.47;;;;;;;;;;5114012;28;20436;-65
2021/12/29 04:21:01;;;;;;;122.63;41.42;;;;;;;;;;5115312;28;20020;-65
2021/12/29 04:23:28;;;;;;;123.40;40.78;;;;;;;;;;5115237;28;20023;-66
2021/12/29 04:25:55;;;;;;;108.72;41.13;;;;;;;;;;5115180;28;20031;-66
2021/12/29 04:28:23;;;;;;;107.20;39.45;;;;;;;;;;5113784;28;20407;-66
2021/12/29 04:30:54;;;;;;;112.55;41.22;;;;;;;;;;5115058;28;20448;-66
2021/12/29 04:33:20;;;;;;;95.45;38.35;;;;;;;;;;5115107;28;20472;-65
2021/12/29 04:35:47;;;;;;;102.63;40.05;;;;;;;;;;5113342;28;20126;-64
2021/12/29 04:38:13;;;;;;;91.97;37.65;;;;;;;;;;5113914;28;20387;-65
2021/12/29 04:40:40;;;;;;;92.03;36.53;;;;;;;;;;5115133;28;20055;-66
2021/12/29 04:43:07;;;;;;;100.97;38.83;;;;;;;;;;5114865;28;20028;-66
2021/12/29 04:45:33;;;;;;;82.93;34.90;;;;;;;;;;5114736;28;20487;-67
2021/12/29 04:48:00;;;;;;;86.50;36.28;;;;;;;;;;5114657;28;20154;-66
2021/12/29 04:50:37;;;;;;;83.25;35.70;;;;;;;;;;5114728;28;20468;-67
2021/12/29 04:53:05;;;;;;;79.03;36.70;;;;;;;;;;5114646;28;20024;-66
2021/12/29 04:55:31;;;;;;;86.43;35.88;;;;;;;;;;5113539;28;20428;-66
2021/12/29 04:57:59;;;;;;;70.43;32.70;;;;;;;;;;5114548;28;20032;-66
2021/12/29 05:00:26;;;;;;;62.00;28.73;;;;;;;;;;5114444;28;20529;-66
2021/12/29 05:02:53;;;;;;;64.18;31.05;;;;;;;;;;5114518;28;20067;-66
2021/12/29 05:10:32;;;;;;;57.83;27.33;;;;;;;;;;5114321;28;20494;-66
2021/12/29 05:12:58;;;;;;;54.78;26.05;;;;;;;;;;5114545;28;20067;-65
2021/12/29 05:15:24;;;;;;;49.95;25.50;;;;;;;;;;5112924;28;20487;-65
2021/12/29 05:17:51;;;;;;;53.47;25.38;;;;;;;;;;5112872;28;20027;-65
2021/12/29 05:20:17;;;;;;;53.58;25.30;;;;;;;;;;5114138;28;20110;-65
2021/12/29 05:22:43;;;;;;;47.72;23.58;;;;;;;;;;5114128;28;20027;-65
2021/12/29 05:25:10;;;;;;;44.75;23.35;;;;;;;;;;5114074;28;20030;-65
2021/12/29 05:27:36;;;;;;;41.15;22.30;;;;;;;;;;5112606;28;20430;-65
2021/12/29 05:30:03;;;;;;;43.47;22.80;;;;;;;;;;5112660;28;20020;-65
2021/12/29 05:32:33;;;;;;;40.15;21.42;;;;;;;;;;5113944;27;20103;-65
2021/12/29 05:35:06;;;;;;;43.85;21.77;;;;;;;;;;5113866;28;20042;-65
2021/12/29 05:37:32;;;;;;;46.10;22.48;;;;;;;;;;5113924;28;20027;-65
2021/12/29 05:39:59;;;;;;;47.55;24.52;;;;;;;;;;5112456;28;20414;-66
2021/12/29 05:42:25;;;;;;;40.75;21.77;;;;;;;;;;5113477;28;20028;-65
2021/12/29 05:44:51;;;;;;;42.53;22.10;;;;;;;;;;5113712;28;20064;-68
2021/12/29 05:47:17;;;;;;;38.17;19.88;;;;;;;;;;5113346;28;20028;-67
2021/12/29 05:49:44;;;;;;;35.20;20.00;;;;;;;;;;5113900;28;20045;-66
2021/12/29 05:52:15;;;;;;;42.72;22.02;;;;;;;;;;5113586;28;20107;-64
2021/12/29 05:54:42;;;;;;;40.15;21.65;;;;;;;;;;5113325;28;20047;-64
2021/12/29 05:57:08;;;;;;;43.17;23.70;;;;;;;;;;5113613;27;20023;-67
2021/12/29 05:59:35;;;;;;;46.78;25.23;;;;;;;;;;5113553;28;20020;-68
2021/12/29 06:02:02;;;;;;;43.75;24.90;;;;;;;;;;5106516;28;20027;-67
2021/12/29 06:04:28;;;;;;;47.00;27.73;;;;;;;;;;5113486;28;20051;-64
2021/12/29 06:06:54;;;;;;;47.97;27.77;;;;;;;;;;5110958;28;20059;-65
2021/12/29 06:09:22;;;;;;;51.10;27.05;;;;;;;;;;5132886;28;20322;-65
2021/12/29 06:11:48;;;;;;;51.30;27.95;;;;;;;;;;5133946;28;20250;-66
2021/12/29 06:14:14;;;;;;;53.17;29.17;;;;;;;;;;5133936;28;20067;-66
2021/12/29 06:16:41;;;;;;;53.58;31.25;;;;;;;;;;5133839;28;20072;-63
2021/12/29 06:19:07;;;;;;;54.08;30.50;;;;;;;;;;5133492;28;20495;-63
2021/12/29 06:21:33;;;;;;;50.60;27.67;;;;;;;;;;5115432;28;20038;-63
2021/12/29 06:23:59;;;;;;;44.47;26.50;;;;;;;;;;5133906;28;20471;-64
2021/12/29 06:26:26;;;;;;;50.30;29.20;;;;;;;;;;5133720;28;20047;-64
2021/12/29 06:28:52;;;;;;;69.93;36.42;;;;;;;;;;5134300;28;20030;-64
2021/12/29 06:31:20;;;;;;;66.57;36.50;;;;;;;;;;5115937;28;20096;-64
2021/12/29 06:33:46;;;;;;;55.08;32.47;;;;;;;;;;5115604;28;20027;-64
2021/12/29 06:36:12;;;;;;;61.05;33.40;;;;;;;;;;5133609;28;20031;-64
2021/12/29 06:38:39;;;;;;;56.22;30.50;;;;;;;;;;5133636;28;20087;-64
2021/12/29 06:43:57;;;;;;;51.67;27.73;;;;;;;;;;5132357;28;20106;-64
2021/12/29 06:46:23;;;;;;;52.33;28.83;;;;;;;;;;5130460;27;20027;-64
2021/12/29 06:48:49;;;;;;;54.67;29.45;;;;;;;;;;5120208;28;20028;-64
2021/12/29 06:51:16;;;;;;;47.53;26.98;;;;;;;;;;5113288;28;20479;-64
2021/12/29 06:53:42;;;;;;;49.55;27.90;;;;;;;;;;5112848;28;20098;-64
2021/12/29 06:56:08;;;;;;;49.97;28.45;;;;;;;;;;5112686;28;20055;-64
2021/12/29 06:58:34;;;;;;;345.63;173.68;;;;;;;;;;5112729;28;20023;-64
2021/12/29 07:01:00;;;;;;;60.13;32.20;;;;;;;;;;5127585;27;20371;-64
2021/12/29 07:03:27;;;;;;;55.03;30.98;;;;;;;;;;5135861;27;20133;-65
2021/12/29 07:05:56;;;;;;;58.92;32.17;;;;;;;;;;5135455;27;20138;-63
2021/12/29 07:08:23;;;;;;;59.95;32.47;;;;;;;;;;5136717;27;20072;-63
2021/12/29 07:10:49;;;;;;;58.40;30.73;;;;;;;;;;5135637;27;20028;-64
2021/12/29 07:13:15;;;;;;;65.88;33.83;;;;;;;;;;5137005;27;20019;-63
2021/12/29 07:15:41;;;;;;;61.75;33.78;;;;;;;;;;5136998;27;20064;-64
2021/12/29 07:18:08;;;;;;;59.83;32.20;;;;;;;;;;5136417;27;20028;-64
2021/12/29 07:20:35;;;;;;;60.58;31.08;;;;;;;;;;5118291;27;20065;-64
2021/12/29 07:23:01;;;;;;;60.42;31.70;;;;;;;;;;5136837;27;20068;-64
2021/12/29 07:25:29;;;;;;;60.80;31.65;;;;;;;;;;5137098;27;20038;-63
2021/12/29 07:27:55;;;;;;;59.58;32.30;;;;;;;;;;5136705;27;20024;-66
2021/12/29 07:30:22;;;;;;;60.80;32.80;;;;;;;;;;5136231;27;20019;-63
2021/12/29 07:32:48;;;;;;;66.90;35.25;;;;;;;;;;5118107;27;20341;-67
2021/12/29 07:35:15;;;;;;;73.25;37.13;;;;;;;;;;5136256;27;20051;-64
2021/12/29 07:37:41;;;;;;;73.18;38.15;;;;;;;;;;5136399;27;20067;-64
2021/12/29 07:40:08;;;;;;;73.68;38.63;;;;;;;;;;5136646;27;20098;-64
2021/12/29 07:42:39;;;;;;;82.93;41.95;;;;;;;;;;5135961;27;20379;-64
2021/12/29 07:45:07;;;;;;;78.72;40.28;;;;;;;;;;5136440;27;20057;-64
2021/12/29 07:47:46;;;;;;;83.00;42.92;;;;;;;;;;5136243;27;20371;-64
2021/12/29 07:50:12;;;;;;;76.80;39.03;;;;;;;;;;5117879;27;20027;-64
2021/12/29 07:52:38;;;;;;;67.78;36.90;;;;;;;;;;5136160;27;20019;-64
2021/12/29 07:55:05;;;;;;;63.80;33.72;;;;;;;;;;5117781;27;20025;-63
2021/12/29 07:57:31;;;;;;;69.97;38.53;;;;;;;;;;5136062;27;20026;-64
2021/12/29 07:59:57;;;;;;;71.43;37.70;;;;;;;;;;5136117;27;20066;-67
2021/12/29 08:02:27;;;;;;;73.85;40.75;;;;;;;;;;5136118;27;20027;-66
2021/12/29 08:04:54;;;;;;;81.20;44.08;;;;;;;;;;5135885;27;20026;-65
2021/12/29 08:07:21;;;;;;;72.07;40.67;;;;;;;;;;5135323;27;20054;-66
2021/12/29 08:09:48;;;;;;;81.75;42.70;;;;;;;;;;5135898;27;20052;-67
2021/12/29 08:12:14;;;;;;;74.30;39.28;;;;;;;;;;5135838;27;20023;-66
2021/12/29 08:14:40;;;;;;;68.50;36.65;;;;;;;;;;5135814;27;20023;-66
2021/12/29 08:17:07;;;;;;;71.68;37.70;;;;;;;;;;5135697;27;20029;-66
2021/12/29 08:19:34;;;;;;;82.32;44.85;;;;;;;;;;5116765;27;20086;-67
2021/12/29 08:22:00;;;;;;;87.20;47.15;;;;;;;;;;5135905;27;20091;-65
2021/12/29 08:24:26;;;;;;;80.68;43.05;;;;;;;;;;5117167;27;20077;-65
2021/12/29 08:26:52;;;;;;;78.50;43.03;;;;;;;;;;5135390;27;20019;-67
2021/12/29 08:29:18;;;;;;;75.72;42.70;;;;;;;;;;5135448;27;20023;-68
2021/12/29 08:31:45;;;;;;;93.07;51.97;;;;;;;;;;5135451;27;20490;-68
2021/12/29 08:34:11;;;;;;;101.80;56.45;;;;;;;;;;5135282;27;20054;-66
2021/12/29 08:36:37;;;;;;;94.38;53.42;;;;;;;;;;5134878;27;20022;-66
2021/12/29 08:39:04;;;;;;;96.95;52.20;;;;;;;;;;5135213;27;20519;-66
2021/12/29 08:41:30;;;;;;;87.25;47.90;;;;;;;;;;5116685;27;20504;-66
2021/12/29 08:43:57;;;;;;;97.50;56.03;;;;;;;;;;5135154;27;20102;-66
2021/12/29 08:46:23;;;;;;;83.72;50.75;;;;;;;;;;5135014;27;20382;-66
2021/12/29 08:48:49;;;;;;;79.93;45.17;;;;;;;;;;5134847;27;20031;-66
2021/12/29 08:51:17;;;;;;;88.13;48.95;;;;;;;;;;5134884;27;20019;-66
2021/12/29 08:53:43;;;;;;;83.90;48.50;;;;;;;;;;5134545;27;20038;-66
2021/12/29 08:56:10;;;;;;;82.40;48.08;;;;;;;;;;5134539;27;20042;-66
2021/12/29 08:58:36;;;;;;;77.75;46.65;;;;;;;;;;5134881;27;20027;-66
2021/12/29 09:01:03;;;;;;;78.07;41.97;;;;;;;;;;5134918;27;20027;-66
2021/12/29 09:03:29;;;;;;;83.57;46.63;;;;;;;;;;5134737;27;20016;-66
2021/12/29 09:05:55;;;;;;;91.13;47.90;;;;;;;;;;5116117;27;20070;-68
2021/12/29 09:08:22;;;;;;;75.32;40.67;;;;;;;;;;5134666;27;20095;-66
2021/12/29 09:10:48;;;;;;;58.97;36.83;;;;;;;;;;5134744;27;20035;-66
2021/12/29 09:13:14;;;;;;;59.47;33.33;;;;;;;;;;5116161;27;20106;-67
2021/12/29 09:15:41;;;;;;;54.20;32.38;;;;;;;;;;5134666;27;20467;-66
2021/12/29 09:18:07;;;;;;;55.83;33.33;;;;;;;;;;5134464;27;20019;-66
2021/12/29 09:20:35;;;;;;;50.97;30.52;;;;;;;;;;5134595;27;20063;-66
2021/12/29 09:23:04;;;;;;;48.08;31.13;;;;;;;;;;5115686;27;20413;-67
2021/12/29 09:25:30;;;;;;;52.10;31.92;;;;;;;;;;5115856;27;20528;-66
2021/12/29 09:27:57;;;;;;;46.58;28.98;;;;;;;;;;5134158;27;20062;-67
2021/12/29 09:30:26;;;;;;;54.58;33.25;;;;;;;;;;5115702;27;20122;-66
2021/12/29 09:32:52;;;;;;;54.13;33.20;;;;;;;;;;5134202;27;20024;-65
2021/12/29 09:35:20;;;;;;;65.53;39.63;;;;;;;;;;5115750;27;20542;-65
2021/12/29 09:37:46;;;;;;;73.38;42.45;;;;;;;;;;5115564;27;20463;-64
2021/12/29 09:40:13;;;;;;;76.15;43.78;;;;;;;;;;5133773;27;20065;-64
2021/12/29 09:42:40;;;;;;;82.78;47.08;;;;;;;;;;5115555;27;20118;-65
2021/12/29 09:45:07;;;;;;;92.32;51.10;;;;;;;;;;5115714;27;20030;-65
2021/12/29 09:47:33;;;;;;;86.88;49.40;;;;;;;;;;5134176;27;20035;-68
2021/12/29 09:50:00;;;;;;;75.78;46.65;;;;;;;;;;5134037;27;20447;-66
2021/12/29 09:52:29;;;;;;;80.60;47.03;;;;;;;;;;5133919;27;20030;-69
2021/12/29 09:54:56;;;;;;;80.68;46.42;;;;;;;;;;5115511;28;20027;-66
2021/12/29 09:57:23;;;;;;;85.28;50.50;;;;;;;;;;5133900;27;20038;-66
2021/12/29 09:59:49;;;;;;;150.88;92.20;;;;;;;;;;5133546;27;20046;-66
2021/12/29 10:02:15;;;;;;;101.70;58.95;;;;;;;;;;5133786;27;20055;-66
2021/12/29 10:04:41;;;;;;;77.53;46.83;;;;;;;;;;5133817;28;20030;-67
2021/12/29 10:07:12;;;;;;;59.08;34.72;;;;;;;;;;5114932;28;20062;-67
2021/12/29 10:09:38;;;;;;;64.15;40.55;;;;;;;;;;5115293;28;20375;-67
2021/12/29 10:12:10;;;;;;;104.20;64.03;;;;;;;;;;5115284;28;20031;-66
2021/12/29 10:14:36;;;;;;;;;;;;;;;;;;5134184;28;20486;-66
2021/12/29 10:17:09;;;;;;;113.90;71.47;;;;;;;;;;5115244;28;19955;-66
2021/12/29 10:19:39;;;;;;;91.50;58.05;;;;;;;;;;5133680;28;20038;-66
2021/12/29 10:22:05;;;;;;;94.13;56.40;;;;;;;;;;5133590;28;20031;-67
2021/12/29 10:24:31;;;;;;;89.05;53.03;;;;;;;;;;5133215;28;20023;-66
2021/12/29 10:26:58;;;;;;;77.18;49.92;;;;;;;;;;5115133;28;20055;-66
2021/12/29 10:29:27;;;;;;;82.47;51.97;;;;;;;;;;5115169;28;20114;-67
2021/12/29 10:31:57;;;;;;;89.93;54.83;;;;;;;;;;5133078;28;20388;-68
2021/12/29 10:34:26;;;;;;;91.32;54.60;;;;;;;;;;5135381;27;20450;-66
2021/12/29 10:36:57;;;;;;;81.70;49.22;;;;;;;;;;5137713;27;20068;-66
2021/12/29 10:39:29;;;;;;;75.82;46.38;;;;;;;;;;5137352;27;20058;-67
2021/12/29 10:42:01;;;;;;;84.63;49.05;;;;;;;;;;5137630;27;20026;-66
2021/12/29 10:44:39;;;;;;;86.32;52.22;;;;;;;;;;5137483;27;20099;-66
2021/12/29 10:47:16;;;;;;;82.40;50.10;;;;;;;;;;5119107;27;20046;-66
2021/12/29 10:49:50;;;;;;;82.50;50.42;;;;;;;;;;5136840;27;20027;-66
2021/12/29 10:52:17;;;;;;;55.65;33.45;;;;;;;;;;5135931;27;20011;-66
2021/12/29 10:54:43;;;;;;;74.70;41.05;;;;;;;;;;5136776;27;20498;-66
2021/12/29 10:57:12;;;;;;;69.45;41.45;;;;;;;;;;5136802;27;20114;-66
2021/12/29 10:59:41;;;;;;;69.53;43.70;;;;;;;;;;5118354;27;20027;-66
2021/12/29 11:02:08;;;;;;;70.75;45.38;;;;;;;;;;5137198;27;20071;-66
2021/12/29 11:04:35;;;;;;;67.93;41.33;;;;;;;;;;5137144;27;20023;-66
2021/12/29 11:07:07;;;;;;;69.13;41.78;;;;;;;;;;5136841;27;20130;-66
2021/12/29 11:09:36;;;;;;;68.20;42.67;;;;;;;;;;5137202;27;20046;-65
2021/12/29 11:12:09;;;;;;;69.07;43.05;;;;;;;;;;5137413;27;20026;-67
2021/12/29 11:14:42;;;;;;;64.75;39.90;;;;;;;;;;5137080;27;20062;-66
2021/12/29 11:17:09;;;;;;;73.30;45.50;;;;;;;;;;5136981;27;20034;-65
2021/12/29 11:19:39;;;;;;;67.70;44.42;;;;;;;;;;5136966;27;20023;-65
2021/12/29 11:22:08;;;;;;;68.80;42.43;;;;;;;;;;5137207;27;20022;-68
2021/12/29 11:24:34;;;;;;;69.65;43.30;;;;;;;;;;5136807;27;20027;-68
2021/12/29 11:27:08;;;;;;;72.28;46.60;;;;;;;;;;5136664;27;20056;-68
2021/12/29 11:29:34;;;;;;;75.65;48.42;;;;;;;;;;5118290;27;20019;-66
2021/12/29 11:32:02;;;;;;;76.82;49.50;;;;;;;;;;5136617;27;20019;-66
2021/12/29 11:34:36;;;;;;;79.53;52.30;;;;;;;;;;5136622;27;20055;-65
2021/12/29 11:37:05;;;;;;;92.95;55.42;;;;;;;;;;5136646;27;20051;-66
2021/12/29 11:39:32;;;;;;;74.13;51.65;;;;;;;;;;5136570;27;20012;-66
2021/12/29 11:41:58;;;;;;;80.50;49.55;;;;;;;;;;5136483;27;20042;-66
2021/12/29 11:44:25;;;;;;;68.63;41.63;;;;;;;;;;5117917;27;20061;-66
2021/12/29 11:46:51;;;;;;;64.70;39.92;;;;;;;;;;5117326;27;20459;-66
2021/12/29 11:49:18;;;;;;;74.65;46.30;;;;;;;;;;5117757;27;20027;-66
2021/12/29 11:51:56;;;;;;;64.60;40.03;;;;;;;;;;5136287;27;20031;-66
2021/12/29 11:54:26;;;;;;;53.90;33.55;;;;;;;;;;5136264;27;20124;-66
2021/12/29 11:56:53;;;;;;;43.78;28.98;;;;;;;;;;5136616;27;20030;-66
2021/12/29 11:59:29;;;;;;;45.35;28.50;;;;;;;;;;5135932;27;20551;-66
2021/12/29 12:02:00;;;;;;;47.60;29.20;;;;;;;;;;5136159;27;20054;-66
2021/12/29 12:04:26;;;;;;;36.28;24.33;;;;;;;;;;5136182;27;20459;-66
2021/12/29 12:07:00;;;;;;;34.40;22.63;;;;;;;;;;5135624;27;20770;-66
2021/12/29 12:09:27;;;;;;;39.03;25.80;;;;;;;;;;5136026;27;20026;-66
2021/12/29 12:11:55;;;;;;;43.65;28.42;;;;;;;;;;5135945;27;20449;-66
2021/12/29 12:14:26;;;;;;;52.80;30.83;;;;;;;;;;5135827;27;20359;-66
2021/12/29 12:16:57;;;;;;;43.70;28.10;;;;;;;;;;5135870;27;20020;-66
2021/12/29 12:19:25;;;;;;;40.53;26.48;;;;;;;;;;5116970;27;20034;-66
2021/12/29 12:22:10;;;;;;;43.83;30.23;;;;;;;;;;5135416;27;20030;-66
2021/12/29 12:24:41;;;;;;;42.70;27.05;;;;;;;;;;5135718;27;20026;-66
2021/12/29 12:27:15;;;;;;;35.72;25.08;;;;;;;;;;5135622;27;20022;-67
2021/12/29 12:29:42;;;;;;;76.97;45.85;;;;;;;;;;5135677;27;20023;-67
2021/12/29 12:32:19;;;;;;;25.60;17.13;;;;;;;;;;5135499;27;20019;-67
2021/12/29 12:34:48;;;;;;;26.23;17.08;;;;;;;;;;5135468;27;20386;-66
2021/12/29 12:37:15;;;;;;;29.55;19.38;;;;;;;;;;5135692;27;20034;-67
2021/12/29 12:40:02;;;;;;;44.80;29.55;;;;;;;;;;5116902;27;20058;-66
2021/12/29 12:42:29;;;;;;;37.90;25.73;;;;;;;;;;5135211;27;20019;-67
2021/12/29 12:45:04;;;;;;;44.17;28.25;;;;;;;;;;5134997;27;20061;-66
2021/12/29 12:47:31;;;;;;;33.25;22.75;;;;;;;;;;5135173;27;20023;-67
2021/12/29 12:49:58;;;;;;;32.90;22.45;;;;;;;;;;5135187;27;20029;-67
2021/12/29 12:52:25;;;;;;;32.92;22.40;;;;;;;;;;5135139;27;20042;-67
2021/12/29 12:54:59;;;;;;;36.33;21.40;;;;;;;;;;5135146;27;20050;-66
2021/12/29 12:57:30;;;;;;;36.22;20.77;;;;;;;;;;5134166;27;20031;-67
2021/12/29 13:00:07;;;;;;;31.57;19.77;;;;;;;;;;5135087;27;20023;-67
2021/12/29 13:02:37;;;;;;;31.55;20.17;;;;;;;;;;5134940;27;20275;-67
2021/12/29 13:05:06;;;;;;;26.50;17.35;;;;;;;;;;5116504;27;20054;-67
2021/12/29 13:07:33;;;;;;;28.10;17.33;;;;;;;;;;5134412;27;20518;-67
2021/12/29 13:10:00;;;;;;;26.67;16.60;;;;;;;;;;5116406;27;20471;-67
2021/12/29 13:12:27;;;;;;;24.20;16.25;;;;;;;;;;5116195;27;20023;-67
2021/12/29 13:15:03;;;;;;;20.05;13.70;;;;;;;;;;5116289;27;20393;-66
2021/12/29 13:17:30;;;;;;;21.38;12.88;;;;;;;;;;5116339;27;20030;-67
2021/12/29 13:19:56;;;;;;;24.83;15.93;;;;;;;;;;5134796;27;20015;-67
2021/12/29 13:22:33;;;;;;;28.75;18.48;;;;;;;;;;5134600;27;20034;-67
2021/12/29 13:25:19;;;;;;;31.70;18.70;;;;;;;;;;5134602;27;20180;-66
2021/12/29 13:28:00;;;;;;;39.60;22.52;;;;;;;;;;5134440;27;20034;-67
2021/12/29 13:30:37;;;;;;;43.92;24.73;;;;;;;;;;5134512;27;20490;-66
2021/12/29 13:33:03;;;;;;;31.23;20.25;;;;;;;;;;5134305;27;20069;-67
2021/12/29 13:35:32;;;;;;;28.50;17.73;;;;;;;;;;5134018;27;20324;-67
2021/12/29 13:37:59;;;;;;;32.60;20.30;;;;;;;;;;5133791;27;20403;-66
2021/12/29 13:40:46;;;;;;;32.38;20.40;;;;;;;;;;5134239;27;20023;-67
2021/12/29 13:43:14;;;;;;;32.60;19.92;;;;;;;;;;5134306;27;20030;-67
2021/12/29 13:45:41;;;;;;;70.18;33.58;;;;;;;;;;5134099;27;20027;-66
2021/12/29 13:48:13;;;;;;;74.72;34.72;;;;;;;;;;5115670;27;20515;-67
2021/12/29 13:50:41;;;;;;;44.15;24.98;;;;;;;;;;5115636;27;20030;-67
2021/12/29 13:53:08;;;;;;;40.70;24.38;;;;;;;;;;5134115;27;20023;-67
2021/12/29 13:55:36;;;;;;;48.72;28.77;;;;;;;;;;5134286;27;20047;-67
2021/12/29 13:58:03;;;;;;;49.10;28.10;;;;;;;;;;5134015;27;20072;-67
2021/12/29 14:00:30;;;;;;;42.83;25.58;;;;;;;;;;5134064;27;20019;-67
2021/12/29 14:02:58;;;;;;;44.08;26.95;;;;;;;;;;5133962;27;20023;-67
2021/12/29 14:05:34;;;;;;;46.67;27.35;;;;;;;;;;5115453;28;20030;-67
2021/12/29 14:08:01;;;;;;;47.70;27.13;;;;;;;;;;5133718;28;20023;-66
2021/12/29 14:10:27;;;;;;;49.55;26.48;;;;;;;;;;5114991;28;20045;-69
2021/12/29 14:12:53;;;;;;;43.97;25.80;;;;;;;;;;5112639;28;20032;-66
2021/12/29 14:15:23;;;;;;;45.70;27.30;;;;;;;;;;5115071;28;20460;-65
2021/12/29 14:17:53;;;;;;;53.65;30.52;;;;;;;;;;5115401;28;20119;-64
2021/12/29 14:20:20;;;;;;;49.67;28.42;;;;;;;;;;5133699;28;20027;-64
2021/12/29 14:22:46;;;;;;;44.67;25.85;;;;;;;;;;5133686;28;20028;-65
2021/12/29 14:25:14;;;;;;;44.55;27.35;;;;;;;;;;5110010;28;20161;-65
2021/12/29 14:27:51;;;;;;;47.75;28.38;;;;;;;;;;5133046;27;20027;-67